createdAt,value
2018-08-03T00:01:26.306Z,59.18
2018-08-03T00:03:55.842Z,59.45
2018-08-03T00:06:25.297Z,59.24
2018-08-03T00:08:55.001Z,59.48
2018-08-03T00:11:24.324Z,59.62
2018-08-03T00:13:53.907Z,59.69
2018-08-03T00:16:23.789Z,59.62
2018-08-03T00:18:53.178Z,59.70
2018-08-03T00:21:22.332Z,59.77
2018-08-03T00:23:52.114Z,59.92
2018-08-03T00:26:21.908Z,59.67
2018-08-03T00:28:51.584Z,59.17
2018-08-03T00:31:22.038Z,58.34
2018-08-03T00:33:51.326Z,59.19
2018-08-03T00:36:20.768Z,58.90
2018-08-03T00:38:50.649Z,59.23
2018-08-03T00:41:19.981Z,59.20
2018-08-03T00:43:49.187Z,59.12
2018-08-03T00:46:18.675Z,59.58
2018-08-03T00:48:48.479Z,58.88
2018-08-03T00:51:18.007Z,58.89
2018-08-03T00:53:47.311Z,58.72
2018-08-03T00:56:16.669Z,58.77
2018-08-03T00:58:46.432Z,59.16
2018-08-03T01:01:16.093Z,59.18
2018-08-03T01:03:45.416Z,59.71
2018-08-03T01:06:14.945Z,59.81
2018-08-03T01:08:44.515Z,59.95
2018-08-03T01:11:13.813Z,59.84
2018-08-03T01:13:43.251Z,60.19
2018-08-03T01:16:12.851Z,59.98
2018-08-03T01:18:42.217Z,59.87
2018-08-03T01:21:11.784Z,60.14
2018-08-03T01:23:41.578Z,60.08
2018-08-03T01:26:11.039Z,59.95
2018-08-03T01:28:40.553Z,60.26
2018-08-03T01:31:09.938Z,60.68
2018-08-03T01:33:39.284Z,60.85
2018-08-03T01:36:08.868Z,61.22
2018-08-03T01:38:38.369Z,61.39
2018-08-03T01:41:07.814Z,61.32
2018-08-03T01:43:37.073Z,61.45
2018-08-03T01:46:07.092Z,61.75
2018-08-03T01:48:36.452Z,61.88
2018-08-03T01:51:06.056Z,61.87
2018-08-03T01:53:35.702Z,62.05
2018-08-03T01:56:04.783Z,62.37
2018-08-03T01:58:34.323Z,62.73
2018-08-03T02:01:04.025Z,62.53
2018-08-03T02:03:33.724Z,62.57
2018-08-03T02:06:03.031Z,62.74
2018-08-03T02:08:32.615Z,63.09
2018-08-03T02:11:01.983Z,63.43
2018-08-03T02:13:31.254Z,63.27
2018-08-03T02:16:00.611Z,63.49
2018-08-03T02:18:30.037Z,63.26
2018-08-03T02:20:59.331Z,64.03
2018-08-03T02:23:29.179Z,63.65
2018-08-03T02:25:58.252Z,63.83
2018-08-03T02:28:28.075Z,63.94
2018-08-03T02:30:57.583Z,64.06
2018-08-03T02:33:26.743Z,63.66
2018-08-03T02:35:56.569Z,64.48
2018-08-03T02:38:26.212Z,64.06
2018-08-03T02:40:55.851Z,64.08
2018-08-03T02:43:25.582Z,64.88
2018-08-03T02:45:55.162Z,64.98
2018-08-03T02:48:24.565Z,64.81
2018-08-03T02:50:54.429Z,64.79
2018-08-03T02:53:24.128Z,65.18
2018-08-03T02:55:53.460Z,64.45
2018-08-03T02:58:22.881Z,64.76
2018-08-03T03:00:52.626Z,64.56
2018-08-03T03:03:22.082Z,65.08
2018-08-03T03:05:51.993Z,65.09
2018-08-03T03:08:21.541Z,65.70
2018-08-03T03:10:51.069Z,65.67
2018-08-03T03:13:20.818Z,66.62
2018-08-03T03:15:50.806Z,67.02
2018-08-03T03:18:20.311Z,66.76
2018-08-03T03:20:49.952Z,67.38
2018-08-03T03:23:19.566Z,67.30
2018-08-03T03:25:48.714Z,67.12
2018-08-03T03:28:18.363Z,66.96
2018-08-03T03:30:47.778Z,66.42
2018-08-03T03:33:17.118Z,66.77
2018-08-03T03:35:47.251Z,66.64
2018-08-03T03:38:16.965Z,66.12
2018-08-03T03:40:46.349Z,66.99
2018-08-03T03:43:15.911Z,67.33
2018-08-03T03:45:45.534Z,67.99
2018-08-03T03:48:15.186Z,68.35
2018-08-03T03:50:44.734Z,68.07
2018-08-03T03:53:14.750Z,68.50
2018-08-03T03:55:44.074Z,68.28
2018-08-03T03:58:13.946Z,68.18
2018-08-03T04:00:43.523Z,68.08
2018-08-03T04:03:13.021Z,67.90
2018-08-03T04:05:42.662Z,68.06
2018-08-03T04:08:12.197Z,67.59
2018-08-03T04:10:41.790Z,68.32
2018-08-03T04:13:11.367Z,68.33
2018-08-03T04:15:40.947Z,68.58
2018-08-03T04:18:13.386Z,68.70
2018-08-03T04:20:43.048Z,68.19
2018-08-03T04:23:12.753Z,68.42
2018-08-03T04:25:42.512Z,68.24
2018-08-03T04:28:12.351Z,68.26
2018-08-03T04:30:42.074Z,68.05
2018-08-03T04:33:11.887Z,68.53
2018-08-03T04:35:41.605Z,68.27
2018-08-03T04:38:11.565Z,67.63
2018-08-03T04:40:40.875Z,67.94
2018-08-03T04:43:10.267Z,67.51
2018-08-03T04:45:39.713Z,67.55
2018-08-03T04:48:09.033Z,67.57
2018-08-03T04:50:38.768Z,68.05
2018-08-03T04:53:08.463Z,67.50
2018-08-03T04:55:37.849Z,67.48
2018-08-03T04:58:07.536Z,67.26
2018-08-03T05:00:37.215Z,67.75
2018-08-03T05:03:07.678Z,67.17
2018-08-03T05:05:37.790Z,67.46
2018-08-03T05:08:07.933Z,67.14
2018-08-03T05:10:37.085Z,66.97
2018-08-03T05:13:06.756Z,67.17
2018-08-03T05:15:36.177Z,66.83
2018-08-03T05:18:05.746Z,66.71
2018-08-03T05:20:35.509Z,66.90
2018-08-03T05:23:05.003Z,66.81
2018-08-03T05:25:34.631Z,67.08
2018-08-03T05:28:05.798Z,66.52
2018-08-03T05:30:35.485Z,66.85
2018-08-03T05:33:04.764Z,66.78
2018-08-03T05:35:34.381Z,67.23
2018-08-03T05:38:03.949Z,67.06
2018-08-03T05:40:33.703Z,67.10
2018-08-03T05:43:02.995Z,66.91
2018-08-03T05:45:32.649Z,66.39
2018-08-03T05:48:02.112Z,66.62
2018-08-03T05:50:31.599Z,66.52
2018-08-03T05:53:01.123Z,65.85
2018-08-03T05:55:30.817Z,65.84
2018-08-03T05:58:00.226Z,66.41
2018-08-03T06:00:29.960Z,66.31
2018-08-03T06:02:59.724Z,66.76
2018-08-03T06:05:29.008Z,66.39
2018-08-03T06:07:58.588Z,65.98
2018-08-03T06:10:28.590Z,65.87
2018-08-03T06:12:58.132Z,64.14
2018-08-03T06:15:27.561Z,64.41
2018-08-03T06:17:59.885Z,63.61
2018-08-03T06:20:29.475Z,63.74
2018-08-03T06:22:58.849Z,64.59
2018-08-03T06:25:28.512Z,63.76
2018-08-03T06:27:58.282Z,64.03
2018-08-03T06:30:27.998Z,63.72
2018-08-03T06:32:57.394Z,62.82
2018-08-03T06:35:26.856Z,62.33
2018-08-03T06:37:56.529Z,62.27
2018-08-03T06:40:25.954Z,61.92
2018-08-03T06:42:55.588Z,61.50
2018-08-03T06:45:25.285Z,61.88
2018-08-03T06:47:54.557Z,61.63
2018-08-03T06:50:24.043Z,61.35
2018-08-03T06:52:53.997Z,61.68
2018-08-03T06:55:23.428Z,61.10
2018-08-03T06:57:52.815Z,60.41
2018-08-03T07:00:22.812Z,59.55
2018-08-03T07:02:52.156Z,59.50
2018-08-03T07:05:21.775Z,57.69
2018-08-03T07:07:51.407Z,56.55
2018-08-03T07:10:20.872Z,57.10
2018-08-03T07:12:50.385Z,56.08
2018-08-03T07:15:20.032Z,55.59
2018-08-03T07:17:49.448Z,54.62
2018-08-03T07:20:19.384Z,53.38
2018-08-03T07:22:48.973Z,52.65
2018-08-03T07:25:18.467Z,53.31
2018-08-03T07:27:48.077Z,53.33
2018-08-03T07:30:17.776Z,53.06
2018-08-03T07:32:47.303Z,53.42
2018-08-03T07:35:16.768Z,52.69
2018-08-03T07:37:46.449Z,53.74
2018-08-03T07:40:15.816Z,53.29
2018-08-03T07:42:45.632Z,53.73
2018-08-03T07:45:15.412Z,53.27
2018-08-03T07:47:44.827Z,54.08
2018-08-03T07:50:14.260Z,54.81
2018-08-03T07:52:43.754Z,54.40
2018-08-03T07:55:13.269Z,54.52
2018-08-03T07:57:43.363Z,52.79
2018-08-03T08:00:13.110Z,49.40
2018-08-03T08:02:42.472Z,47.64
2018-08-03T08:05:12.320Z,46.75
2018-08-03T08:07:41.681Z,46.31
2018-08-03T08:10:10.989Z,44.89
2018-08-03T08:12:40.565Z,44.82
2018-08-03T08:15:10.269Z,44.19
2018-08-03T08:17:39.718Z,42.72
2018-08-03T08:20:09.316Z,42.91
2018-08-03T08:22:39.188Z,43.56
2018-08-03T08:25:08.860Z,43.64
2018-08-03T08:27:38.229Z,44.14
2018-08-03T08:30:08.011Z,44.00
2018-08-03T08:32:37.525Z,44.06
2018-08-03T08:35:07.080Z,44.72
2018-08-03T08:37:36.594Z,44.99
2018-08-03T08:40:06.628Z,44.27
2018-08-03T08:42:36.022Z,44.77
2018-08-03T08:45:05.893Z,43.87
2018-08-03T08:47:35.298Z,42.72
2018-08-03T08:50:04.909Z,43.43
2018-08-03T08:52:34.339Z,42.82
2018-08-03T08:55:03.621Z,44.19
2018-08-03T08:57:33.451Z,45.19
2018-08-03T09:00:03.867Z,44.94
2018-08-03T09:02:33.254Z,45.14
2018-08-03T09:05:03.175Z,45.79
2018-08-03T09:07:32.904Z,45.95
2018-08-03T09:10:02.357Z,46.33
2018-08-03T09:12:31.713Z,46.38
2018-08-03T09:15:01.635Z,47.43
2018-08-03T09:17:30.987Z,46.84
2018-08-03T09:20:00.412Z,46.94
2018-08-03T09:22:29.904Z,47.25
2018-08-03T09:24:59.585Z,47.52
2018-08-03T09:27:28.957Z,48.53
2018-08-03T09:29:58.807Z,48.24
2018-08-03T09:32:28.900Z,48.76
2018-08-03T09:34:58.472Z,48.81
2018-08-03T09:37:28.529Z,48.37
2018-08-03T09:39:58.045Z,47.89
2018-08-03T09:42:27.584Z,47.89
2018-08-03T09:44:57.180Z,47.24
2018-08-03T09:47:26.811Z,46.88
2018-08-03T09:49:56.109Z,44.92
2018-08-03T09:52:25.792Z,44.60
2018-08-03T09:54:55.184Z,44.83
2018-08-03T09:57:24.717Z,45.19
2018-08-03T09:59:54.031Z,46.07
2018-08-03T10:02:23.759Z,45.83
2018-08-03T10:04:53.266Z,45.53
2018-08-03T10:07:22.899Z,45.58
2018-08-03T10:09:52.399Z,46.47
2018-08-03T10:12:21.904Z,46.14
2018-08-03T10:14:51.840Z,45.63
2018-08-03T10:17:21.368Z,45.50
2018-08-03T10:19:50.935Z,45.72
2018-08-03T10:22:20.740Z,44.50
2018-08-03T10:24:50.464Z,44.36
2018-08-03T10:27:19.989Z,44.63
2018-08-03T10:29:49.903Z,44.02
2018-08-03T10:32:19.328Z,45.50
2018-08-03T10:34:48.777Z,45.54
2018-08-03T10:37:18.532Z,44.85
2018-08-03T10:39:48.148Z,46.00
2018-08-03T10:42:17.765Z,45.51
2018-08-03T10:44:47.380Z,45.81
2018-08-03T10:47:16.782Z,44.55
2018-08-03T10:49:46.225Z,44.59
2018-08-03T10:52:15.832Z,44.80
2018-08-03T10:54:45.381Z,45.97
2018-08-03T10:57:14.651Z,46.73
2018-08-03T10:59:44.483Z,45.52
2018-08-03T11:02:14.057Z,45.67
2018-08-03T11:04:43.394Z,45.77
2018-08-03T11:07:12.957Z,45.84
2018-08-03T11:09:42.412Z,45.64
2018-08-03T11:12:11.715Z,45.92
2018-08-03T11:14:41.855Z,45.92
2018-08-03T11:17:11.257Z,46.33
2018-08-03T11:19:40.656Z,47.17
2018-08-03T11:22:10.538Z,47.68
2018-08-03T11:24:40.064Z,48.44
2018-08-03T11:27:09.563Z,46.88
2018-08-03T11:29:38.846Z,46.24
2018-08-03T11:32:08.610Z,47.15
2018-08-03T11:34:38.288Z,47.61
2018-08-03T11:37:08.288Z,47.60
2018-08-03T11:39:37.990Z,47.13
2018-08-03T11:42:07.570Z,47.42
2018-08-03T11:44:37.197Z,47.12
2018-08-03T11:47:06.830Z,46.28
2018-08-03T11:49:36.460Z,46.52
2018-08-03T11:52:06.043Z,46.72
2018-08-03T11:54:35.329Z,46.43
2018-08-03T11:57:05.142Z,46.49
2018-08-03T11:59:34.697Z,46.12
2018-08-03T12:02:04.604Z,46.08
2018-08-03T12:04:34.205Z,45.80
2018-08-03T12:07:03.632Z,45.24
2018-08-03T12:09:33.084Z,46.03
2018-08-03T12:12:02.570Z,45.79
2018-08-03T12:14:32.191Z,45.32
2018-08-03T12:17:01.682Z,45.87
2018-08-03T12:19:31.300Z,46.18
2018-08-03T12:22:01.071Z,46.23
2018-08-03T12:24:30.542Z,46.51
2018-08-03T12:27:00.256Z,46.56
2018-08-03T12:29:29.757Z,46.96
2018-08-03T12:31:59.119Z,46.33
2018-08-03T12:34:28.740Z,45.87
2018-08-03T12:36:58.167Z,45.63
2018-08-03T12:39:27.654Z,45.73
2018-08-03T12:41:57.271Z,45.92
2018-08-03T12:44:26.768Z,45.72
2018-08-03T12:46:56.109Z,46.76
2018-08-03T12:49:25.795Z,46.65
2018-08-03T12:51:55.341Z,46.19
2018-08-03T12:54:24.691Z,46.18
2018-08-03T12:56:54.255Z,47.52
2018-08-03T12:59:23.914Z,46.72
2018-08-03T13:01:53.560Z,47.01
2018-08-03T13:04:23.118Z,46.92
2018-08-03T13:06:52.566Z,46.23
2018-08-03T13:09:22.214Z,47.45
2018-08-03T13:11:51.625Z,47.30
2018-08-03T13:14:21.195Z,47.30
2018-08-03T13:16:50.846Z,46.93
2018-08-03T13:19:19.923Z,46.23
2018-08-03T13:21:49.542Z,45.47
2018-08-03T13:24:18.957Z,45.14
2018-08-03T13:26:48.674Z,44.87
2018-08-03T13:29:18.651Z,46.01
2018-08-03T13:31:48.200Z,45.63
2018-08-03T13:34:17.729Z,45.56
2018-08-03T13:36:47.785Z,45.42
2018-08-03T13:39:18.526Z,45.75
2018-08-03T13:41:47.943Z,45.20
2018-08-03T13:44:17.525Z,44.37
2018-08-03T13:46:47.155Z,44.64
2018-08-03T13:49:16.549Z,43.87
2018-08-03T13:51:46.242Z,44.36
2018-08-03T13:54:15.726Z,44.31
2018-08-03T13:56:45.078Z,44.11
2018-08-03T13:59:14.585Z,44.72
2018-08-03T14:01:55.207Z,45.15
2018-08-03T14:04:24.771Z,45.18
2018-08-03T14:06:54.542Z,45.23
2018-08-03T14:09:24.001Z,45.66
2018-08-03T14:11:53.741Z,46.62
2018-08-03T14:14:23.279Z,46.69
2018-08-03T14:16:52.734Z,46.12
2018-08-03T14:19:22.618Z,46.60
2018-08-03T14:21:52.210Z,46.81
2018-08-03T14:24:21.700Z,46.43
2018-08-03T14:26:51.153Z,47.02
2018-08-03T14:29:20.846Z,46.84
2018-08-03T14:31:50.398Z,46.24
2018-08-03T14:34:19.975Z,46.66
2018-08-03T14:36:49.670Z,46.86
2018-08-03T14:39:19.065Z,46.56
2018-08-03T14:41:48.528Z,46.60
2018-08-03T14:44:18.236Z,47.04
2018-08-03T14:46:47.444Z,47.61
2018-08-03T14:49:17.182Z,47.75
2018-08-03T14:51:46.634Z,46.75
2018-08-03T14:54:16.080Z,47.01
2018-08-03T14:56:45.847Z,46.77
2018-08-03T14:59:15.819Z,46.84
2018-08-03T15:01:45.217Z,46.43
2018-08-03T15:04:14.728Z,46.48
2018-08-03T15:06:44.210Z,46.79
2018-08-03T15:09:13.716Z,46.69
2018-08-03T15:11:43.309Z,46.69
2018-08-03T15:14:12.854Z,47.57
2018-08-03T15:16:42.337Z,47.35
2018-08-03T15:19:11.936Z,47.25
2018-08-03T15:21:41.456Z,48.02
2018-08-03T15:24:10.819Z,47.82
2018-08-03T15:26:40.435Z,47.17
2018-08-03T15:29:10.063Z,47.30
2018-08-03T15:31:39.526Z,47.35
2018-08-03T15:34:09.048Z,47.26
2018-08-03T15:36:38.510Z,47.16
2018-08-03T15:39:09.947Z,46.47
2018-08-03T15:41:39.441Z,46.01
2018-08-03T15:44:08.725Z,46.66
2018-08-03T15:46:38.204Z,46.37
2018-08-03T15:49:08.136Z,47.20
2018-08-03T15:51:37.429Z,47.72
2018-08-03T15:54:07.042Z,47.38
2018-08-03T15:56:36.509Z,47.75
2018-08-03T15:59:05.945Z,48.57
2018-08-03T16:01:35.514Z,48.36
2018-08-03T16:04:06.239Z,48.84
2018-08-03T16:06:35.927Z,49.38
2018-08-03T16:09:07.696Z,49.83
2018-08-03T16:11:36.934Z,50.21
2018-08-03T16:14:06.432Z,50.41
2018-08-03T16:16:36.308Z,51.71
2018-08-03T16:19:06.002Z,52.00
2018-08-03T16:21:35.643Z,52.56
2018-08-03T16:24:05.326Z,52.86
2018-08-03T16:26:34.916Z,52.54
2018-08-03T16:29:04.326Z,52.82
2018-08-03T16:31:33.869Z,52.83
2018-08-03T16:34:03.441Z,54.55
2018-08-03T16:36:32.854Z,55.02
2018-08-03T16:39:03.153Z,54.58
2018-08-03T16:41:32.533Z,53.78
2018-08-03T16:44:02.076Z,54.60
2018-08-03T16:46:31.957Z,55.14
2018-08-03T16:49:01.743Z,54.62
2018-08-03T16:51:31.176Z,54.22
2018-08-03T16:54:00.897Z,54.78
2018-08-03T16:56:30.301Z,53.92
2018-08-03T16:58:59.700Z,53.30
2018-08-03T17:01:29.524Z,53.78
2018-08-03T17:03:59.186Z,52.98
2018-08-03T17:06:28.650Z,52.19
2018-08-03T17:08:58.401Z,52.37
2018-08-03T17:11:27.654Z,52.37
2018-08-03T17:13:57.167Z,51.71
2018-08-03T17:16:26.999Z,50.21
2018-08-03T17:18:56.505Z,50.56
2018-08-03T17:21:25.718Z,52.76
2018-08-03T17:23:55.256Z,50.98
2018-08-03T17:26:24.854Z,51.48
2018-08-03T17:28:54.379Z,50.57
2018-08-03T17:31:24.100Z,50.31
2018-08-03T17:33:53.501Z,50.92
2018-08-03T17:36:22.693Z,50.42
2018-08-03T17:38:52.640Z,52.72
2018-08-03T17:41:22.307Z,52.05
2018-08-03T17:43:51.658Z,51.68
2018-08-03T17:46:21.247Z,50.41
2018-08-03T17:48:50.825Z,50.56
2018-08-03T17:51:20.080Z,51.08
2018-08-03T17:53:49.653Z,51.86
2018-08-03T17:56:19.254Z,51.97
2018-08-03T17:58:48.741Z,54.06
2018-08-03T18:01:18.221Z,54.79
2018-08-03T18:03:47.956Z,54.93
2018-08-03T18:06:17.681Z,55.44
2018-08-03T18:08:47.396Z,56.11
2018-08-03T18:11:16.823Z,56.98
2018-08-03T18:13:46.356Z,56.94
2018-08-03T18:16:16.013Z,56.97
2018-08-03T18:18:45.604Z,56.50
2018-08-03T18:21:14.822Z,56.71
2018-08-03T18:23:44.531Z,57.22
2018-08-03T18:26:14.307Z,57.07
2018-08-03T18:28:43.617Z,57.34
2018-08-03T18:31:13.389Z,57.86
2018-08-03T18:33:42.972Z,58.15
2018-08-03T18:36:12.615Z,58.85
2018-08-03T18:38:42.336Z,58.83
2018-08-03T18:41:12.136Z,59.19
2018-08-03T18:43:41.660Z,58.63
2018-08-03T18:46:11.547Z,59.25
2018-08-03T18:48:41.245Z,58.79
2018-08-03T18:51:11.059Z,58.62
2018-08-03T18:53:40.532Z,58.58
2018-08-03T18:56:10.338Z,58.35
2018-08-03T18:58:39.841Z,58.17
2018-08-03T19:01:09.555Z,58.91
2018-08-03T19:03:39.126Z,58.87
2018-08-03T19:06:08.679Z,58.42
2018-08-03T19:08:38.042Z,58.68
2018-08-03T19:11:07.674Z,58.72
2018-08-03T19:13:37.282Z,59.45
2018-08-03T19:16:06.703Z,59.68
2018-08-03T19:18:36.395Z,59.18
2018-08-03T19:21:05.907Z,59.39
2018-08-03T19:23:35.479Z,59.59
2018-08-03T19:26:04.898Z,59.56
2018-08-03T19:28:34.395Z,59.46
2018-08-03T19:31:03.972Z,59.38
2018-08-03T19:33:33.692Z,59.58
2018-08-03T19:36:03.013Z,60.03
2018-08-03T19:38:32.534Z,60.37
2018-08-03T19:41:02.075Z,60.10
2018-08-03T19:43:31.743Z,59.44
2018-08-03T19:46:01.309Z,59.60
2018-08-03T19:48:31.158Z,60.06
2018-08-03T19:51:00.607Z,60.05
2018-08-03T19:53:30.487Z,59.77
2018-08-03T19:56:00.227Z,60.65
2018-08-03T19:58:30.073Z,60.12
2018-08-03T20:00:59.738Z,60.08
2018-08-03T20:03:29.284Z,60.04
2018-08-03T20:05:58.766Z,60.84
2018-08-03T20:08:29.383Z,60.23
2018-08-03T20:10:58.646Z,60.49
2018-08-03T20:13:28.613Z,61.12
2018-08-03T20:15:58.319Z,60.67
2018-08-03T20:18:27.774Z,60.77
2018-08-03T20:20:57.466Z,61.19
2018-08-03T20:23:27.316Z,61.33
2018-08-03T20:25:56.827Z,61.22
2018-08-03T20:28:27.146Z,60.55
2018-08-03T20:30:56.558Z,60.69
2018-08-03T20:33:25.828Z,60.97
2018-08-03T20:35:55.455Z,60.80
2018-08-03T20:38:26.133Z,60.84
2018-08-03T20:40:55.605Z,61.61
2018-08-03T20:43:25.502Z,61.15
2018-08-03T20:45:55.203Z,61.37
2018-08-03T20:48:24.570Z,61.23
2018-08-03T20:50:54.055Z,61.55
2018-08-03T20:53:23.782Z,61.79
2018-08-03T20:55:53.206Z,62.57
2018-08-03T20:58:22.965Z,62.18
2018-08-03T21:00:52.871Z,62.52
2018-08-03T21:03:22.316Z,62.30
2018-08-03T21:05:52.032Z,61.80
2018-08-03T21:08:22.013Z,61.86
2018-08-03T21:10:51.368Z,62.05
2018-08-03T21:13:20.694Z,62.59
2018-08-03T21:15:50.534Z,62.14
2018-08-03T21:18:19.995Z,62.47
2018-08-03T21:20:49.481Z,62.86
2018-08-03T21:23:19.280Z,62.92
2018-08-03T21:25:48.606Z,62.50
2018-08-03T21:28:18.042Z,62.62
2018-08-03T21:30:47.660Z,62.65
2018-08-03T21:33:17.068Z,62.38
2018-08-03T21:35:46.473Z,62.36
2018-08-03T21:38:16.190Z,62.58
2018-08-03T21:40:45.708Z,62.64
2018-08-03T21:43:15.250Z,63.09
2018-08-03T21:45:45.138Z,63.17
2018-08-03T21:48:14.341Z,63.05
2018-08-03T21:50:43.746Z,62.98
2018-08-03T21:53:13.441Z,63.10
2018-08-03T21:55:42.873Z,63.50
2018-08-03T21:58:12.458Z,63.36
2018-08-03T22:00:42.274Z,63.23
2018-08-03T22:03:11.658Z,63.56
2018-08-03T22:05:40.861Z,63.63
2018-08-03T22:08:10.694Z,63.33
2018-08-03T22:10:40.157Z,63.46
2018-08-03T22:13:09.714Z,63.56
2018-08-03T22:15:39.157Z,63.62
2018-08-03T22:18:08.789Z,63.97
2018-08-03T22:20:38.365Z,63.43
2018-08-03T22:23:08.235Z,63.46
2018-08-03T22:25:37.676Z,64.00
2018-08-03T22:28:07.214Z,64.14
2018-08-03T22:30:36.779Z,63.97
2018-08-03T22:33:06.512Z,63.96
2018-08-03T22:35:35.911Z,64.78
2018-08-03T22:38:06.405Z,65.69
2018-08-03T22:40:36.198Z,65.36
2018-08-03T22:43:05.536Z,65.81
2018-08-03T22:45:34.922Z,66.60
2018-08-03T22:48:04.354Z,66.36
2018-08-03T22:50:33.896Z,67.22
2018-08-03T22:53:03.567Z,66.42
2018-08-03T22:55:33.117Z,66.97
2018-08-03T22:58:02.227Z,66.79
2018-08-03T23:00:32.124Z,66.72
2018-08-03T23:03:01.698Z,66.95
2018-08-03T23:05:31.270Z,66.26
2018-08-03T23:08:01.760Z,66.60
2018-08-03T23:10:31.383Z,66.54
2018-08-03T23:13:00.737Z,67.00
2018-08-03T23:15:30.644Z,67.31
2018-08-03T23:18:00.292Z,67.68
2018-08-03T23:20:29.896Z,66.98
2018-08-03T23:22:59.444Z,67.16
2018-08-03T23:25:29.000Z,67.58
2018-08-03T23:27:58.431Z,67.19
2018-08-03T23:30:27.797Z,67.64
2018-08-03T23:32:57.316Z,68.41
2018-08-03T23:35:26.848Z,68.18
2018-08-03T23:37:56.181Z,67.61
2018-08-03T23:40:25.559Z,67.50
2018-08-03T23:42:55.046Z,67.72
2018-08-03T23:45:24.332Z,68.40
2018-08-03T23:47:53.961Z,67.77
2018-08-03T23:50:23.757Z,68.00
2018-08-03T23:52:53.461Z,68.43
2018-08-03T23:55:23.067Z,68.87
2018-08-03T23:57:52.733Z,67.93
